Flight Track Log - Related Links

Times and Time Zones

All times are in EDT time to prevent confusion due to time zone crossing. See the EJA583 flight status page for this flight to view local times or setup timezone preferences in your user account.


Time Position Orientation Groundspeed Altitude Reporting Facility
EDT Latitude Longitude Course Direction KTS MPH feet Rate Location/Type
Thu 08:17:24 PM 34.0000 -118.4667 254° West 201 231 900  Level Southern California TRACON
Thu 08:18:46 PM 33.9775 -118.5619 254° West 214 246 3,800 1,958 Climbing Los Angeles Center
Thu 08:19:48 PM 33.9133 -118.5731 188° South 255 293 5,600 2,081 Climbing Los Angeles Center
Thu 08:20:50 PM 33.8303 -118.5528 169° South 282 325 8,100 2,160 Climbing Los Angeles Center
Thu 08:21:53 PM 33.7511 -118.5339 169° South 293 337 10,100 1,536 Climbing Los Angeles Center
Thu 08:22:55 PM 33.6875 -118.4672 139° Southeast 330 380 11,300 1,500 Climbing Los Angeles Center
Thu 08:23:57 PM 33.6825 -118.3333 93° East 343 395 13,200 1,839 Climbing Los Angeles Center
Thu 08:24:59 PM 33.6811 -118.2228 91° East 342 394 15,100 1,887 Climbing Los Angeles Center
Thu 08:26:01 PM 33.6797 -118.1133 91° East 335 386 17,100 1,984 Climbing Los Angeles Center
Thu 08:27:03 PM 33.6778 -118.0014 91° East 336 387 19,200 1,694 Climbing Los Angeles Center
Thu 08:28:05 PM 33.6753 -117.8858 91° East 344 396 20,600 1,548 Climbing Los Angeles Center
Thu 08:29:07 PM 33.6728 -117.7408 91° East 363 418 22,400 1,597 Climbing Los Angeles Center
Thu 08:30:09 PM 33.6686 -117.6175 92° East 369 425 23,900 1,452 Climbing Los Angeles Center
Thu 08:31:11 PM 33.6672 -117.4925 91° East 375 432 25,400 1,440 Climbing Los Angeles Center
Thu 08:32:14 PM 33.6633 -117.3669 92° East 377 434 26,900 1,296 Climbing Los Angeles Center
Thu 08:33:16 PM 33.6600 -117.2406 92° East 380 437 28,100 1,161 Climbing Los Angeles Center
Thu 08:34:18 PM 33.6508 -117.0828 94° East 397 457 29,300 1,065 Climbing Los Angeles Center
Thu 08:35:20 PM 33.6356 -116.9461 98° East 411 473 30,300 1,016 Climbing Los Angeles Center
Thu 08:36:22 PM 33.6211 -116.8214 98° East 413 475 31,400 1,210 Climbing Los Angeles Center
Thu 08:37:24 PM 33.6064 -116.6872 97° East 408 470 32,800 1,403 Climbing Los Angeles Center
Thu 08:38:26 PM 33.5872 -116.5236 98° East 411 473 34,300 1,258 Climbing Los Angeles Center
Thu 08:39:28 PM 33.5719 -116.3894 98° East 407 468 35,400 1,016 Climbing Los Angeles Center
Thu 08:40:30 PM 33.5558 -116.2533 98° East 410 472 36,400 1,016 Climbing Los Angeles Center
Thu 08:41:32 PM 33.5394 -116.1133 98° East 420 483 37,500 1,008 Climbing Los Angeles Center
Thu 08:42:35 PM 33.5219 -115.9764 99° East 415 478 38,500 960 Climbing Los Angeles Center
Thu 08:43:37 PM 33.5056 -115.8408 98° East 413 475 39,500 968 Climbing Los Angeles Center
Thu 08:44:39 PM 33.4892 -115.7058 98° East 409 471 40,500 726 Climbing Los Angeles Center
Thu 08:45:41 PM 33.4692 -115.5467 99° East 403 464 41,000 242 Climbing Los Angeles Center
Thu 08:46:43 PM 33.4517 -115.4086 99° East 417 480 41,000  Level Los Angeles Center
Thu 08:47:45 PM 33.4339 -115.2644 98° East 434 499 41,000  Level Los Angeles Center
Thu 08:48:47 PM 33.4150 -115.1194 99° East 440 506 41,000  Level Los Angeles Center
Thu 08:49:49 PM 33.3947 -114.9742 99° East 442 509 41,000  Level Los Angeles Center
Thu 08:50:51 PM 33.3772 -114.8253 98° East 452 520 41,000  Level Los Angeles Center
Thu 08:51:53 PM 33.3542 -114.6506 99° East 446 513 41,000  Level Los Angeles Center
Thu 08:52:56 PM 33.3358 -114.5047 99° East 444 511 41,000  Level Los Angeles Center
Thu 08:53:58 PM 33.3164 -114.3597 99° East 444 511 41,000  Level Los Angeles Center
Thu 08:55:00 PM 33.2958 -114.2161 100° East 440 506 41,000  Level Los Angeles Center
Thu 08:55:54 PM 33.2797 -114.0803 98° East 442 509 41,000  Level Albuquerque Center
Thu 08:56:54 PM 33.2600 -113.9361 99° East 441 507 41,000  Level Albuquerque Center
Thu 08:57:56 PM 33.2403 -113.7906 99° East 443 510 41,000  Level Albuquerque Center
Thu 08:58:56 PM 33.2189 -113.6456 100° East 444 511 41,000  Level Albuquerque Center
Thu 09:00:00 PM 33.1983 -113.4994 100° East 446 513 41,000  Level Albuquerque Center
Thu 09:01:01 PM 33.1789 -113.3533 99° East 445 512 41,000  Level Albuquerque Center
Thu 09:02:01 PM 33.1567 -113.2069 100° East 446 513 41,000  Level Albuquerque Center
Thu 09:03:04 PM 33.1314 -113.0308 100° East 447 514 41,000  Level Albuquerque Center
Thu 09:04:05 PM 33.1100 -112.8844 100° East 447 514 41,000  Level Albuquerque Center
Thu 09:05:06 PM 33.0883 -112.7378 100° East 447 514 41,000  Level Albuquerque Center
Thu 09:06:10 PM 33.0661 -112.5911 100° East 448 516 41,000  Level Albuquerque Center
Thu 09:07:10 PM 33.0439 -112.4475 100° East 443 510 41,000  Level Albuquerque Center
Thu 09:08:12 PM 33.0217 -112.3036 100° East 441 507 41,000  Level Albuquerque Center
Thu 09:09:15 PM 32.9983 -112.1497 100° East 443 510 41,000  Level Albuquerque Center
Thu 09:10:16 PM 32.9767 -112.0058 100° East 444 511 41,000  Level Albuquerque Center
Thu 09:11:19 PM 32.9550 -111.8611 100° East 446 513 41,000  Level Albuquerque Center
Thu 09:12:20 PM 32.9328 -111.7172 100° East 446 513 41,000 49 Level Albuquerque Center
Thu 09:13:21 PM 32.9058 -111.5444 100° East 445 512 41,100  Climbing Albuquerque Center
Thu 09:14:22 PM 32.8831 -111.4014 101° East 443 510 41,000 -48 Descending Albuquerque Center
Thu 09:15:26 PM 32.8611 -111.2597 100° East 441 507 41,000  Level Albuquerque Center
Thu 09:16:26 PM 32.8375 -111.1172 101° East 440 506 41,000  Level Albuquerque Center
Thu 09:17:27 PM 32.8142 -110.9764 101° East 437 503 41,000  Level Albuquerque Center
Thu 09:18:28 PM 32.7919 -110.8356 101° East 437 503 41,000  Level Albuquerque Center
Thu 09:19:32 PM 32.7633 -110.6681 101° East 433 498 41,000  Level Albuquerque Center
Thu 09:20:33 PM 32.7433 -110.5428 101° East 435 501 41,000  Level Albuquerque Center
Thu 09:21:33 PM 32.7194 -110.4019 101° East 436 502 41,000  Level Albuquerque Center
Thu 09:22:37 PM 32.6906 -110.2339 102° East 435 501 41,000  Level Albuquerque Center
Thu 09:23:38 PM 32.6678 -110.0939 101° East 435 501 41,000  Level Albuquerque Center
Thu 09:24:41 PM 32.6436 -109.9539 102° East 435 501 41,000  Level Albuquerque Center
Thu 09:25:41 PM 32.6183 -109.8131 102° East 437 503 41,000  Level Albuquerque Center
Thu 09:26:45 PM 32.5933 -109.6728 102° East 439 505 41,000  Level Albuquerque Center
Thu 09:27:46 PM 32.5672 -109.5311 102° East 443 510 41,000  Level Albuquerque Center
Thu 09:28:46 PM 32.5425 -109.3911 102° East 441 507 41,000  Level Albuquerque Center
Thu 09:29:50 PM 32.5133 -109.2253 102° East 435 501 41,000  Level Albuquerque Center
Thu 09:30:50 PM 32.4997 -109.0847 97° East 437 503 41,000  Level Albuquerque Center
Thu 09:31:51 PM 32.4872 -108.9422 96° East 440 506 41,000  Level Albuquerque Center
Thu 09:32:52 PM 32.4744 -108.7994 96° East 440 506 41,000  Level Albuquerque Center
Thu 09:33:56 PM 32.4631 -108.6569 95° East 439 505 41,000  Level Albuquerque Center
Thu 09:34:57 PM 32.4478 -108.4853 96° East 440 506 41,000  Level Albuquerque Center
Thu 09:35:59 PM 32.4347 -108.3372 96° East 440 506 41,000  Level Albuquerque Center
Thu 09:37:00 PM 32.4214 -108.1944 96° East 439 505 41,000  Level Albuquerque Center
Thu 09:38:03 PM 32.4089 -108.0517 96° East 438 504 41,000  Level Albuquerque Center
Thu 09:39:03 PM 32.3950 -107.9094 97° East 437 503 41,000  Level Albuquerque Center
Thu 09:40:04 PM 32.3814 -107.7675 96° East 437 503 41,000  Level Albuquerque Center
Thu 09:41:06 PM 32.3686 -107.6250 96° East 437 503 41,000  Level Albuquerque Center
Thu 09:42:07 PM 32.3536 -107.4608 96° East 434 499 41,000  Level Albuquerque Center
Thu 09:43:10 PM 32.3394 -107.3181 97° East 437 503 41,000  Level Albuquerque Center
Thu 09:44:11 PM 32.3269 -107.1636 95° East 436 502 41,000  Level Albuquerque Center
Thu 09:45:12 PM 32.3125 -107.0217 97° East 435 501 41,000  Level Albuquerque Center
Thu 09:46:15 PM 32.2978 -106.8786 97° East 438 504 41,000  Level Albuquerque Center
Thu 09:47:17 PM 32.2858 -106.7517 96° East 442 509 41,000  Level Albuquerque Center
Thu 09:48:18 PM 32.2675 -106.5828 97° East 435 501 41,000  Level Albuquerque Center
Thu 09:49:19 PM 32.2528 -106.4425 97° East 433 498 41,000  Level Albuquerque Center
Thu 09:50:20 PM 32.2383 -106.3017 97° East 434 499 41,000  Level Albuquerque Center
Thu 09:51:21 PM 32.2217 -106.1544 98° East 434 499 41,000  Level Albuquerque Center
Thu 09:52:23 PM 32.2056 -106.0144 98° East 431 496 41,000  Level Albuquerque Center
Thu 09:53:24 PM 32.1906 -105.8731 97° East 433 498 41,000  Level Albuquerque Center
Thu 09:54:25 PM 32.1758 -105.7336 97° East 430 495 41,000  Level Albuquerque Center
Thu 09:55:26 PM 32.1594 -105.5925 98° East 433 498 41,000  Level Albuquerque Center
Thu 09:56:30 PM 32.1433 -105.4514 98° East 434 499 41,000  Level Albuquerque Center
Thu 09:57:30 PM 32.1275 -105.3094 97° East 436 502 41,000  Level Albuquerque Center
Thu 09:58:31 PM 32.1114 -105.1689 98° East 434 499 41,000  Level Albuquerque Center
Thu 09:59:35 PM 32.0922 -104.9961 97° East 437 503 41,000  Level Albuquerque Center
Thu 10:00:36 PM 32.0756 -104.8528 98° East 439 505 41,000  Level Albuquerque Center
Thu 10:01:38 PM 32.0578 -104.7094 98° East 440 506 41,000  Level Albuquerque Center
Thu 10:02:39 PM 32.0411 -104.5664 98° East 441 507 41,000  Level Albuquerque Center
Thu 10:03:40 PM 32.0247 -104.4244 98° East 439 505 41,000  Level Albuquerque Center
Thu 10:04:41 PM 32.0067 -104.2828 99° East 437 503 41,000  Level Albuquerque Center
Thu 10:05:43 PM 31.9897 -104.1475 98° East 426 490 41,000  Level Albuquerque Center
Thu 10:06:44 PM 31.9736 -104.0106 98° East 415 478 41,000  Level Albuquerque Center
Thu 10:07:45 PM 31.9572 -103.8794 98° East 410 472 41,000  Level Albuquerque Center
Thu 10:08:47 PM 31.9408 -103.7511 99° East 403 464 41,000  Level Albuquerque Center
Thu 10:09:49 PM 31.9222 -103.5978 98° East 398 458 41,000  Level Albuquerque Center
Thu 10:10:49 PM 31.9050 -103.4683 99° East 400 460 41,000  Level Albuquerque Center
Thu 10:11:51 PM 31.8872 -103.3372 99° East 405 466 41,000  Level Albuquerque Center
Thu 10:12:52 PM 31.8783 -103.2067 95° East 402 463 41,000  Level Albuquerque Center
Thu 10:13:55 PM 31.8944 -103.0786 82° East 399 459 41,000  Level Albuquerque Center
Thu 10:14:56 PM 31.9086 -102.9489 83° East 400 460 41,000  Level Albuquerque Center
Thu 10:15:56 PM 31.9247 -102.8183 82° East 399 459 41,000  Level Albuquerque Center
Thu 10:17:00 PM 31.9447 -102.6594 82° East 403 464 41,000  Level Albuquerque Center
Thu 10:18:01 PM 31.9578 -102.5283 83° East 405 466 41,000  Level Albuquerque Center
Thu 10:19:02 PM 31.9719 -102.4003 83° East 406 467 41,000  Level Albuquerque Center
Thu 10:20:09 PM 31.9931 -102.2458 81° East 404 465 41,000  Level Fort Worth Center
Thu 10:21:09 PM 32.0086 -102.1119 82° East 404 465 41,000  Level Fort Worth Center
Thu 10:22:09 PM 32.0217 -101.9806 83° East 404 465 41,000  Level Fort Worth Center
Thu 10:23:09 PM 32.0369 -101.8489 82° East 404 465 41,000  Level Fort Worth Center
Thu 10:24:09 PM 32.0492 -101.7319 83° East 404 465 41,000  Level Fort Worth Center
Thu 10:25:09 PM 32.0642 -101.6028 82° East 404 465 41,000  Level Fort Worth Center
Thu 10:26:09 PM 32.0769 -101.4683 84° East 404 465 41,000  Level Fort Worth Center
Thu 10:27:09 PM 32.0894 -101.3367 84° East 404 465 41,000  Level Fort Worth Center
Thu 10:28:09 PM 32.1058 -101.2072 81° East 404 465 41,000  Level Fort Worth Center
Thu 10:29:09 PM 32.1161 -101.0753 85° East 404 465 41,000  Level Fort Worth Center
Thu 10:30:09 PM 32.1258 -100.9481 85° East 404 465 41,000  Level Fort Worth Center
Thu 10:31:09 PM 32.1378 -100.8186 84° East 397 457 41,000  Level Fort Worth Center
Thu 10:32:09 PM 32.1497 -100.6892 84° East 397 457 41,000  Level Fort Worth Center
Thu 10:33:09 PM 32.1636 -100.5569 83° East 397 457 41,000  Level Fort Worth Center
Thu 10:34:09 PM 32.1750 -100.4297 84° East 397 457 41,000  Level Fort Worth Center
Thu 10:35:09 PM 32.1883 -100.3003 83° East 397 457 41,000  Level Fort Worth Center
Thu 10:36:09 PM 32.1997 -100.1656 84° East 402 463 41,000  Level Fort Worth Center
Thu 10:37:09 PM 32.2131 -100.0358 83° East 402 463 41,000  Level Fort Worth Center
Thu 10:38:09 PM 32.2219 -99.9058 85° East 402 463 41,000  Level Fort Worth Center
Thu 10:39:09 PM 32.2308 -99.7736 85° East 402 463 41,000  Level Fort Worth Center
Thu 10:40:09 PM 32.2269 -99.6408 92° East 402 463 41,000  Level Fort Worth Center
Thu 10:41:09 PM 32.2231 -99.5056 92° East 402 463 41,000  Level Fort Worth Center
Thu 10:42:09 PM 32.2250 -99.3781 89° East 402 463 41,000 -700 Level Fort Worth Center
Thu 10:43:09 PM 32.2436 -99.2483 80° East 397 457 39,600 -1,800 Descending Fort Worth Center
Thu 10:44:09 PM 32.2622 -99.1183 80° East 402 463 37,400 -2,150 Descending Fort Worth Center
Thu 10:45:09 PM 32.2808 -98.9836 81° East 412 474 35,300 -2,100 Descending Fort Worth Center
Thu 10:46:09 PM 32.2969 -98.8536 82° East 407 468 33,200 -2,050 Descending Fort Worth Center
Thu 10:47:09 PM 32.3128 -98.7408 81° East 378 435 31,200 -2,000 Descending Fort Worth Center
Thu 10:48:09 PM 32.3328 -98.6158 79° East 372 428 29,200 -2,150 Descending Fort Worth Center
Thu 10:49:09 PM 32.3486 -98.4783 82° East 394 453 26,900 -2,500 Descending Fort Worth Center
Thu 10:50:09 PM 32.3686 -98.3233 81° East 422 486 24,200 -2,350 Descending Fort Worth Center
Thu 10:51:09 PM 32.3842 -98.1981 82° East 428 493 22,200 -2,250 Descending Fort Worth Center
Thu 10:52:09 PM 32.4017 -98.0508 82° East 422 486 19,700 -2,250 Descending Fort Worth Center
Thu 10:53:09 PM 32.4169 -97.9350 81° East 405 466 17,700 -2,050 Descending Fort Worth Center
Thu 10:54:09 PM 32.4339 -97.8022 81° East 379 436 15,600 -1,800 Descending Fort Worth Center
Thu 10:55:09 PM 32.4489 -97.6989 80° East 364 419 14,100 -1,400 Descending Fort Worth Center
Thu 10:56:09 PM 32.5056 -97.5933 58° Northeast 344 396 12,800 -1,300 Descending Fort Worth Center
Thu 10:57:09 PM 32.5536 -97.5119 55° Northeast 338 389 11,500 -900 Descending Fort Worth Center
Thu 10:58:09 PM 32.6100 -97.4133 56° Northeast 327 376 11,000 -250 Descending Fort Worth Center
Thu 10:59:09 PM 32.6558 -97.3294 57° Northeast 327 376 11,000  Level Fort Worth Center
Thu 11:00:09 PM 32.7122 -97.2308 56° Northeast 332 382 11,000  Level Fort Worth Center
Thu 11:01:09 PM 32.7767 -97.1761 36° Northeast 282 325 11,000 -700 Level Fort Worth Center
Thu 11:02:09 PM 32.8478 -97.1761 360° North 241 277 9,600 -1,500 Descending Fort Worth Center
Thu 11:02:53 PM 32.9000 -97.1500 23° Northeast 232 267 8,400 -1,891 Descending Dallas / Fort Worth TRACON
Thu 11:03:41 PM 32.9167 -97.1000 68° East 235 270 6,700 -2,368 Descending Dallas / Fort Worth TRACON
Thu 11:04:47 PM 32.9333 -97.0167 77° East 231 266 3,900 -2,238 Descending Dallas / Fort Worth TRACON
Thu 11:05:47 PM 32.9333 -96.9500 90° East 219 252 2,000 -1,143 Descending Dallas / Fort Worth TRACON
Thu 11:06:53 PM 32.9000 -96.9000 128° Southeast 141 162 1,500 -550 Descending Dallas / Fort Worth TRACON
Thu 11:07:47 PM 32.8667 -96.8667 140° Southeast 123 142 900 -667 Descending Dallas / Fort Worth TRACON
Thu 11:09:00 PM 32.8471 -96.8518 73° East  Level Estimated
Thu 11:16:00 PM 32.8471 -96.8518 73° East  Level Estimated
Thu 11:17:00 PM 32.8471 -96.8518 73° East  Level Estimated

Login

Don't have an account? Register now (free) for customized features, flight alerts, and more!